Manitou, North Dakota
Current Conditions -  °F | °C
As of 4:55 AM on Wednesday 22 Oct 2014 (Local Time) from K08D Reporting Station
Overcast Overcast  
Wind Chill: 52°   Ceiling: 11000
Heat Index: 52°   Visibility: 10mi
Dew Point: 48°   Wind: 10mph
Humidity: 88%   Direction: 260°W
Pressure: 29.68"   Gusts: NA
Location:  48.3282°N, 102.504°W
Report Text: K08D 220955Z AUTO 26009KT 10SM OVC110 11/09 A2968 RMK AO2
Loading
Personal Weather Stations






























Interactive Weather Map
Tropical Storm Tracking
New forecast layout! Learn more

10-Day Weather Forecast

Advertisements
Track Severe Weather on mobile